sensor_id;sensor_type;location;lat;lon;timestamp;P1;durP1;ratioP1;P2;durP2;ratioP2
4422;SDS011;2224;49.814;8.650;2024-02-28T00:01:04;23.50;;;17.10;;
4422;SDS011;2224;49.814;8.650;2024-02-28T00:03:29;25.43;;;17.67;;
4422;SDS011;2224;49.814;8.650;2024-02-28T00:05:56;23.03;;;17.00;;
4422;SDS011;2224;49.814;8.650;2024-02-28T00:08:22;23.57;;;16.90;;
4422;SDS011;2224;49.814;8.650;2024-02-28T00:10:47;22.33;;;15.90;;
4422;SDS011;2224;49.814;8.650;2024-02-28T00:13:14;26.40;;;17.23;;
4422;SDS011;2224;49.814;8.650;2024-02-28T00:15:40;24.07;;;17.17;;
4422;SDS011;2224;49.814;8.650;2024-02-28T00:18:05;28.20;;;17.63;;
4422;SDS011;2224;49.814;8.650;2024-02-28T00:20:31;23.53;;;17.40;;
4422;SDS011;2224;49.814;8.650;2024-02-28T00:22:56;26.03;;;17.30;;
4422;SDS011;2224;49.814;8.650;2024-02-28T00:25:21;24.73;;;16.67;;
4422;SDS011;2224;49.814;8.650;2024-02-28T00:27:47;25.33;;;16.77;;
4422;SDS011;2224;49.814;8.650;2024-02-28T00:30:12;27.20;;;17.77;;
4422;SDS011;2224;49.814;8.650;2024-02-28T00:32:38;26.17;;;18.13;;
4422;SDS011;2224;49.814;8.650;2024-02-28T00:35:04;23.07;;;16.57;;
4422;SDS011;2224;49.814;8.650;2024-02-28T00:37:29;26.43;;;17.40;;
4422;SDS011;2224;49.814;8.650;2024-02-28T00:39:55;25.90;;;16.87;;
4422;SDS011;2224;49.814;8.650;2024-02-28T00:42:21;25.63;;;17.43;;
4422;SDS011;2224;49.814;8.650;2024-02-28T00:44:46;26.10;;;18.50;;
4422;SDS011;2224;49.814;8.650;2024-02-28T00:47:12;24.53;;;16.50;;
4422;SDS011;2224;49.814;8.650;2024-02-28T00:49:37;24.67;;;17.33;;
4422;SDS011;2224;49.814;8.650;2024-02-28T00:52:02;26.80;;;19.10;;
4422;SDS011;2224;49.814;8.650;2024-02-28T00:54:28;29.13;;;19.40;;
4422;SDS011;2224;49.814;8.650;2024-02-28T00:56:53;26.47;;;18.17;;
4422;SDS011;2224;49.814;8.650;2024-02-28T00:59:19;25.47;;;16.97;;
4422;SDS011;2224;49.814;8.650;2024-02-28T01:01:44;26.10;;;17.60;;
4422;SDS011;2224;49.814;8.650;2024-02-28T01:04:09;23.97;;;16.47;;
4422;SDS011;2224;49.814;8.650;2024-02-28T01:06:34;29.00;;;18.87;;
4422;SDS011;2224;49.814;8.650;2024-02-28T01:09:00;26.20;;;16.50;;
4422;SDS011;2224;49.814;8.650;2024-02-28T01:11:25;25.77;;;17.43;;
4422;SDS011;2224;49.814;8.650;2024-02-28T01:13:50;27.10;;;18.93;;
4422;SDS011;2224;49.814;8.650;2024-02-28T01:16:16;29.20;;;17.97;;
4422;SDS011;2224;49.814;8.650;2024-02-28T01:18:41;25.27;;;17.43;;
4422;SDS011;2224;49.814;8.650;2024-02-28T01:21:07;28.43;;;18.03;;
4422;SDS011;2224;49.814;8.650;2024-02-28T01:23:32;24.20;;;17.53;;
4422;SDS011;2224;49.814;8.650;2024-02-28T01:25:57;25.00;;;16.73;;
4422;SDS011;2224;49.814;8.650;2024-02-28T01:28:23;27.23;;;17.43;;
4422;SDS011;2224;49.814;8.650;2024-02-28T01:30:48;26.30;;;17.97;;
4422;SDS011;2224;49.814;8.650;2024-02-28T01:33:14;27.80;;;17.30;;
4422;SDS011;2224;49.814;8.650;2024-02-28T01:35:39;28.47;;;18.50;;
4422;SDS011;2224;49.814;8.650;2024-02-28T01:38:04;26.63;;;19.13;;
4422;SDS011;2224;49.814;8.650;2024-02-28T01:40:30;28.83;;;18.33;;
4422;SDS011;2224;49.814;8.650;2024-02-28T01:43:01;28.00;;;17.07;;
4422;SDS011;2224;49.814;8.650;2024-02-28T01:45:27;26.53;;;17.77;;
4422;SDS011;2224;49.814;8.650;2024-02-28T01:47:52;29.10;;;18.27;;
4422;SDS011;2224;49.814;8.650;2024-02-28T01:50:18;29.10;;;19.47;;
4422;SDS011;2224;49.814;8.650;2024-02-28T01:52:43;31.63;;;19.23;;
4422;SDS011;2224;49.814;8.650;2024-02-28T01:55:09;24.87;;;18.43;;
4422;SDS011;2224;49.814;8.650;2024-02-28T01:57:34;29.63;;;19.07;;
4422;SDS011;2224;49.814;8.650;2024-02-28T02:00:02;31.50;;;18.63;;
4422;SDS011;2224;49.814;8.650;2024-02-28T02:02:29;28.00;;;18.07;;
4422;SDS011;2224;49.814;8.650;2024-02-28T02:04:54;25.93;;;18.67;;
4422;SDS011;2224;49.814;8.650;2024-02-28T02:07:21;25.87;;;18.10;;
4422;SDS011;2224;49.814;8.650;2024-02-28T02:09:47;28.47;;;18.80;;
4422;SDS011;2224;49.814;8.650;2024-02-28T02:12:12;36.20;;;21.87;;
4422;SDS011;2224;49.814;8.650;2024-02-28T02:14:37;26.63;;;17.33;;
4422;SDS011;2224;49.814;8.650;2024-02-28T02:17:03;31.37;;;19.63;;
4422;SDS011;2224;49.814;8.650;2024-02-28T02:19:28;33.13;;;20.43;;
4422;SDS011;2224;49.814;8.650;2024-02-28T02:21:54;29.17;;;20.00;;
4422;SDS011;2224;49.814;8.650;2024-02-28T02:24:22;30.57;;;19.57;;
4422;SDS011;2224;49.814;8.650;2024-02-28T02:26:48;31.57;;;18.80;;
4422;SDS011;2224;49.814;8.650;2024-02-28T02:29:16;31.07;;;20.00;;
4422;SDS011;2224;49.814;8.650;2024-02-28T02:31:41;29.07;;;19.10;;
4422;SDS011;2224;49.814;8.650;2024-02-28T02:34:07;29.10;;;19.70;;
4422;SDS011;2224;49.814;8.650;2024-02-28T02:36:32;30.17;;;20.17;;
4422;SDS011;2224;49.814;8.650;2024-02-28T02:38:57;34.37;;;19.90;;
4422;SDS011;2224;49.814;8.650;2024-02-28T02:41:23;30.93;;;20.07;;
4422;SDS011;2224;49.814;8.650;2024-02-28T02:43:48;30.17;;;21.03;;
4422;SDS011;2224;49.814;8.650;2024-02-28T02:46:13;30.60;;;19.63;;
4422;SDS011;2224;49.814;8.650;2024-02-28T02:48:39;32.77;;;21.30;;
4422;SDS011;2224;49.814;8.650;2024-02-28T02:51:04;32.73;;;20.73;;
4422;SDS011;2224;49.814;8.650;2024-02-28T02:53:29;31.27;;;19.73;;
4422;SDS011;2224;49.814;8.650;2024-02-28T02:55:55;31.60;;;19.63;;
4422;SDS011;2224;49.814;8.650;2024-02-28T02:58:20;29.37;;;20.03;;
4422;SDS011;2224;49.814;8.650;2024-02-28T03:00:45;30.57;;;19.30;;
4422;SDS011;2224;49.814;8.650;2024-02-28T03:03:10;31.63;;;19.83;;
4422;SDS011;2224;49.814;8.650;2024-02-28T03:05:36;37.47;;;22.57;;
4422;SDS011;2224;49.814;8.650;2024-02-28T03:08:01;35.03;;;21.10;;
4422;SDS011;2224;49.814;8.650;2024-02-28T03:10:27;31.23;;;20.27;;
4422;SDS011;2224;49.814;8.650;2024-02-28T03:12:52;36.57;;;22.43;;
4422;SDS011;2224;49.814;8.650;2024-02-28T03:15:18;35.40;;;20.23;;
4422;SDS011;2224;49.814;8.650;2024-02-28T03:17:43;32.20;;;21.00;;
4422;SDS011;2224;49.814;8.650;2024-02-28T03:20:08;29.80;;;20.27;;
4422;SDS011;2224;49.814;8.650;2024-02-28T03:22:34;34.47;;;20.23;;
4422;SDS011;2224;49.814;8.650;2024-02-28T03:24:59;31.97;;;20.70;;
4422;SDS011;2224;49.814;8.650;2024-02-28T03:27:25;31.97;;;20.70;;
4422;SDS011;2224;49.814;8.650;2024-02-28T03:29:50;37.73;;;22.07;;
4422;SDS011;2224;49.814;8.650;2024-02-28T03:32:15;36.43;;;20.80;;
4422;SDS011;2224;49.814;8.650;2024-02-28T03:34:40;30.90;;;20.90;;
4422;SDS011;2224;49.814;8.650;2024-02-28T03:37:06;32.90;;;20.53;;
4422;SDS011;2224;49.814;8.650;2024-02-28T03:39:31;35.13;;;20.57;;
4422;SDS011;2224;49.814;8.650;2024-02-28T03:41:56;32.97;;;21.43;;
4422;SDS011;2224;49.814;8.650;2024-02-28T03:44:22;35.63;;;20.83;;
4422;SDS011;2224;49.814;8.650;2024-02-28T03:46:47;34.37;;;21.60;;
4422;SDS011;2224;49.814;8.650;2024-02-28T03:49:12;36.93;;;21.30;;
4422;SDS011;2224;49.814;8.650;2024-02-28T03:51:40;36.70;;;22.03;;
4422;SDS011;2224;49.814;8.650;2024-02-28T03:54:06;31.27;;;19.97;;
4422;SDS011;2224;49.814;8.650;2024-02-28T03:56:31;36.40;;;21.33;;
4422;SDS011;2224;49.814;8.650;2024-02-28T03:58:56;36.70;;;22.10;;
4422;SDS011;2224;49.814;8.650;2024-02-28T04:01:22;32.97;;;20.73;;
4422;SDS011;2224;49.814;8.650;2024-02-28T04:03:47;36.03;;;22.17;;
4422;SDS011;2224;49.814;8.650;2024-02-28T04:06:12;34.37;;;20.33;;
4422;SDS011;2224;49.814;8.650;2024-02-28T04:08:38;35.83;;;21.13;;
4422;SDS011;2224;49.814;8.650;2024-02-28T04:11:05;33.47;;;20.83;;
4422;SDS011;2224;49.814;8.650;2024-02-28T04:13:31;35.80;;;22.13;;
4422;SDS011;2224;49.814;8.650;2024-02-28T04:15:56;32.33;;;21.10;;
4422;SDS011;2224;49.814;8.650;2024-02-28T04:18:22;34.70;;;21.27;;
4422;SDS011;2224;49.814;8.650;2024-02-28T04:20:47;33.33;;;21.50;;
4422;SDS011;2224;49.814;8.650;2024-02-28T04:23:12;39.10;;;21.90;;
4422;SDS011;2224;49.814;8.650;2024-02-28T04:25:38;35.87;;;21.63;;
4422;SDS011;2224;49.814;8.650;2024-02-28T04:28:05;33.17;;;21.20;;
4422;SDS011;2224;49.814;8.650;2024-02-28T04:30:31;35.47;;;22.40;;
4422;SDS011;2224;49.814;8.650;2024-02-28T04:32:56;35.87;;;20.27;;
4422;SDS011;2224;49.814;8.650;2024-02-28T04:35:22;38.00;;;22.70;;
4422;SDS011;2224;49.814;8.650;2024-02-28T04:37:47;35.70;;;21.03;;
4422;SDS011;2224;49.814;8.650;2024-02-28T04:40:12;43.93;;;21.13;;
4422;SDS011;2224;49.814;8.650;2024-02-28T04:42:39;34.27;;;21.07;;
4422;SDS011;2224;49.814;8.650;2024-02-28T04:45:04;37.00;;;22.93;;
4422;SDS011;2224;49.814;8.650;2024-02-28T04:47:30;40.23;;;23.83;;
4422;SDS011;2224;49.814;8.650;2024-02-28T04:49:55;35.50;;;22.87;;
4422;SDS011;2224;49.814;8.650;2024-02-28T04:52:21;37.43;;;22.10;;
4422;SDS011;2224;49.814;8.650;2024-02-28T04:54:46;38.57;;;21.70;;
4422;SDS011;2224;49.814;8.650;2024-02-28T04:57:12;39.90;;;23.30;;
4422;SDS011;2224;49.814;8.650;2024-02-28T04:59:37;36.03;;;22.13;;
4422;SDS011;2224;49.814;8.650;2024-02-28T05:02:02;41.83;;;24.83;;
4422;SDS011;2224;49.814;8.650;2024-02-28T05:04:28;40.23;;;22.87;;
4422;SDS011;2224;49.814;8.650;2024-02-28T05:06:53;41.10;;;23.60;;
4422;SDS011;2224;49.814;8.650;2024-02-28T05:09:19;40.53;;;22.67;;
4422;SDS011;2224;49.814;8.650;2024-02-28T05:11:44;37.60;;;23.17;;
4422;SDS011;2224;49.814;8.650;2024-02-28T05:14:10;40.10;;;22.97;;
4422;SDS011;2224;49.814;8.650;2024-02-28T05:16:35;40.07;;;23.03;;
4422;SDS011;2224;49.814;8.650;2024-02-28T05:19:01;35.07;;;22.20;;
4422;SDS011;2224;49.814;8.650;2024-02-28T05:21:26;39.70;;;23.17;;
4422;SDS011;2224;49.814;8.650;2024-02-28T05:23:52;44.80;;;23.47;;
4422;SDS011;2224;49.814;8.650;2024-02-28T05:26:17;41.10;;;23.30;;
4422;SDS011;2224;49.814;8.650;2024-02-28T05:28:42;38.10;;;23.17;;
4422;SDS011;2224;49.814;8.650;2024-02-28T05:31:20;40.97;;;22.87;;
4422;SDS011;2224;49.814;8.650;2024-02-28T05:33:50;38.30;;;23.10;;
4422;SDS011;2224;49.814;8.650;2024-02-28T05:36:19;40.00;;;23.30;;
4422;SDS011;2224;49.814;8.650;2024-02-28T05:38:48;39.90;;;23.30;;
4422;SDS011;2224;49.814;8.650;2024-02-28T05:41:13;39.40;;;22.80;;
4422;SDS011;2224;49.814;8.650;2024-02-28T05:43:39;36.50;;;22.13;;
4422;SDS011;2224;49.814;8.650;2024-02-28T05:46:05;37.10;;;20.90;;
4422;SDS011;2224;49.814;8.650;2024-02-28T05:48:30;38.70;;;22.83;;
4422;SDS011;2224;49.814;8.650;2024-02-28T05:50:56;37.97;;;22.63;;
4422;SDS011;2224;49.814;8.650;2024-02-28T05:53:21;36.17;;;22.73;;
4422;SDS011;2224;49.814;8.650;2024-02-28T05:55:46;35.07;;;21.37;;
4422;SDS011;2224;49.814;8.650;2024-02-28T05:58:13;35.40;;;23.20;;
4422;SDS011;2224;49.814;8.650;2024-02-28T06:00:38;34.47;;;20.93;;
4422;SDS011;2224;49.814;8.650;2024-02-28T06:03:03;35.37;;;22.40;;
4422;SDS011;2224;49.814;8.650;2024-02-28T06:05:29;32.47;;;19.43;;
4422;SDS011;2224;49.814;8.650;2024-02-28T06:07:55;35.00;;;20.53;;
4422;SDS011;2224;49.814;8.650;2024-02-28T06:10:20;34.97;;;21.10;;
4422;SDS011;2224;49.814;8.650;2024-02-28T06:12:46;39.73;;;22.87;;
4422;SDS011;2224;49.814;8.650;2024-02-28T06:15:11;37.10;;;22.33;;
4422;SDS011;2224;49.814;8.650;2024-02-28T06:17:37;44.40;;;23.00;;
4422;SDS011;2224;49.814;8.650;2024-02-28T06:20:02;35.40;;;21.80;;
4422;SDS011;2224;49.814;8.650;2024-02-28T06:22:28;43.13;;;22.37;;
4422;SDS011;2224;49.814;8.650;2024-02-28T06:24:53;45.67;;;22.87;;
4422;SDS011;2224;49.814;8.650;2024-02-28T06:27:18;39.77;;;23.93;;
4422;SDS011;2224;49.814;8.650;2024-02-28T06:29:43;38.27;;;23.13;;
4422;SDS011;2224;49.814;8.650;2024-02-28T06:32:09;38.10;;;22.67;;
4422;SDS011;2224;49.814;8.650;2024-02-28T06:34:34;45.07;;;25.13;;
4422;SDS011;2224;49.814;8.650;2024-02-28T06:36:59;42.53;;;23.70;;
4422;SDS011;2224;49.814;8.650;2024-02-28T06:39:25;38.10;;;22.70;;
4422;SDS011;2224;49.814;8.650;2024-02-28T06:41:50;45.20;;;24.70;;
4422;SDS011;2224;49.814;8.650;2024-02-28T06:44:17;37.57;;;22.67;;
4422;SDS011;2224;49.814;8.650;2024-02-28T06:46:43;40.20;;;24.13;;
4422;SDS011;2224;49.814;8.650;2024-02-28T06:49:08;37.87;;;23.77;;
4422;SDS011;2224;49.814;8.650;2024-02-28T06:51:34;40.70;;;22.73;;
4422;SDS011;2224;49.814;8.650;2024-02-28T06:53:59;44.03;;;23.13;;
4422;SDS011;2224;49.814;8.650;2024-02-28T06:56:24;40.77;;;25.30;;
4422;SDS011;2224;49.814;8.650;2024-02-28T06:58:50;40.00;;;23.37;;
4422;SDS011;2224;49.814;8.650;2024-02-28T07:01:15;39.30;;;22.53;;
4422;SDS011;2224;49.814;8.650;2024-02-28T07:03:40;42.77;;;23.70;;
4422;SDS011;2224;49.814;8.650;2024-02-28T07:06:06;43.40;;;23.87;;
4422;SDS011;2224;49.814;8.650;2024-02-28T07:08:31;39.47;;;23.10;;
4422;SDS011;2224;49.814;8.650;2024-02-28T07:10:57;47.23;;;24.07;;
4422;SDS011;2224;49.814;8.650;2024-02-28T07:13:22;45.07;;;24.30;;
4422;SDS011;2224;49.814;8.650;2024-02-28T07:15:48;40.20;;;23.27;;
4422;SDS011;2224;49.814;8.650;2024-02-28T07:18:19;45.57;;;25.47;;
4422;SDS011;2224;49.814;8.650;2024-02-28T07:20:44;45.30;;;25.33;;
4422;SDS011;2224;49.814;8.650;2024-02-28T07:23:10;42.50;;;25.37;;
4422;SDS011;2224;49.814;8.650;2024-02-28T07:25:35;46.57;;;26.80;;
4422;SDS011;2224;49.814;8.650;2024-02-28T07:28:00;49.07;;;26.27;;
4422;SDS011;2224;49.814;8.650;2024-02-28T07:30:27;47.80;;;27.43;;
4422;SDS011;2224;49.814;8.650;2024-02-28T07:32:52;43.47;;;25.60;;
4422;SDS011;2224;49.814;8.650;2024-02-28T07:35:18;42.10;;;26.13;;
4422;SDS011;2224;49.814;8.650;2024-02-28T07:37:43;46.50;;;27.20;;
4422;SDS011;2224;49.814;8.650;2024-02-28T07:40:09;46.30;;;27.77;;
4422;SDS011;2224;49.814;8.650;2024-02-28T07:42:34;45.47;;;25.43;;
4422;SDS011;2224;49.814;8.650;2024-02-28T07:45:00;44.90;;;25.40;;
4422;SDS011;2224;49.814;8.650;2024-02-28T07:47:25;44.50;;;24.70;;
4422;SDS011;2224;49.814;8.650;2024-02-28T07:49:51;47.17;;;27.07;;
4422;SDS011;2224;49.814;8.650;2024-02-28T07:52:17;44.33;;;25.40;;
4422;SDS011;2224;49.814;8.650;2024-02-28T07:54:42;46.20;;;25.83;;
4422;SDS011;2224;49.814;8.650;2024-02-28T07:57:10;47.80;;;26.97;;
4422;SDS011;2224;49.814;8.650;2024-02-28T07:59:42;46.50;;;26.10;;
4422;SDS011;2224;49.814;8.650;2024-02-28T08:02:08;52.03;;;27.17;;
4422;SDS011;2224;49.814;8.650;2024-02-28T08:04:34;45.00;;;26.37;;
4422;SDS011;2224;49.814;8.650;2024-02-28T08:07:00;45.13;;;26.97;;
4422;SDS011;2224;49.814;8.650;2024-02-28T08:09:25;44.67;;;26.20;;
4422;SDS011;2224;49.814;8.650;2024-02-28T08:11:50;47.70;;;26.47;;
4422;SDS011;2224;49.814;8.650;2024-02-28T08:14:16;46.53;;;27.07;;
4422;SDS011;2224;49.814;8.650;2024-02-28T08:16:42;42.20;;;24.50;;
4422;SDS011;2224;49.814;8.650;2024-02-28T08:19:07;48.20;;;27.20;;
4422;SDS011;2224;49.814;8.650;2024-02-28T08:21:33;47.77;;;26.23;;
4422;SDS011;2224;49.814;8.650;2024-02-28T08:23:58;45.13;;;25.53;;
4422;SDS011;2224;49.814;8.650;2024-02-28T08:26:23;50.70;;;25.90;;
4422;SDS011;2224;49.814;8.650;2024-02-28T08:28:49;48.40;;;27.40;;
4422;SDS011;2224;49.814;8.650;2024-02-28T08:31:14;45.17;;;26.00;;
4422;SDS011;2224;49.814;8.650;2024-02-28T08:33:40;42.80;;;25.43;;
4422;SDS011;2224;49.814;8.650;2024-02-28T08:36:06;41.87;;;24.37;;
4422;SDS011;2224;49.814;8.650;2024-02-28T08:38:31;39.67;;;23.90;;
4422;SDS011;2224;49.814;8.650;2024-02-28T08:40:57;47.20;;;26.37;;
4422;SDS011;2224;49.814;8.650;2024-02-28T08:43:22;41.63;;;23.60;;
4422;SDS011;2224;49.814;8.650;2024-02-28T08:45:47;43.90;;;26.50;;
4422;SDS011;2224;49.814;8.650;2024-02-28T08:48:15;40.40;;;24.13;;
4422;SDS011;2224;49.814;8.650;2024-02-28T08:50:40;40.80;;;24.73;;
4422;SDS011;2224;49.814;8.650;2024-02-28T08:53:05;38.13;;;22.90;;
4422;SDS011;2224;49.814;8.650;2024-02-28T08:55:31;42.07;;;24.10;;
4422;SDS011;2224;49.814;8.650;2024-02-28T08:57:56;48.87;;;26.10;;
4422;SDS011;2224;49.814;8.650;2024-02-28T09:00:21;42.13;;;22.93;;
4422;SDS011;2224;49.814;8.650;2024-02-28T09:02:47;41.13;;;23.93;;
4422;SDS011;2224;49.814;8.650;2024-02-28T09:05:12;40.87;;;24.70;;
4422;SDS011;2224;49.814;8.650;2024-02-28T09:07:38;39.53;;;22.80;;
4422;SDS011;2224;49.814;8.650;2024-02-28T09:10:03;41.30;;;23.50;;
4422;SDS011;2224;49.814;8.650;2024-02-28T09:12:30;39.70;;;23.90;;
4422;SDS011;2224;49.814;8.650;2024-02-28T09:14:55;41.10;;;23.20;;
4422;SDS011;2224;49.814;8.650;2024-02-28T09:17:22;38.77;;;23.03;;
4422;SDS011;2224;49.814;8.650;2024-02-28T09:19:48;41.13;;;23.33;;
4422;SDS011;2224;49.814;8.650;2024-02-28T09:22:13;40.80;;;23.07;;
4422;SDS011;2224;49.814;8.650;2024-02-28T09:24:40;39.97;;;23.07;;
4422;SDS011;2224;49.814;8.650;2024-02-28T09:27:05;44.53;;;24.20;;
4422;SDS011;2224;49.814;8.650;2024-02-28T09:29:31;45.73;;;24.17;;
4422;SDS011;2224;49.814;8.650;2024-02-28T09:31:56;38.20;;;23.00;;
4422;SDS011;2224;49.814;8.650;2024-02-28T09:34:21;37.37;;;23.50;;
4422;SDS011;2224;49.814;8.650;2024-02-28T09:36:47;39.13;;;23.73;;
4422;SDS011;2224;49.814;8.650;2024-02-28T09:39:12;40.37;;;24.60;;
4422;SDS011;2224;49.814;8.650;2024-02-28T09:41:39;38.70;;;24.10;;
4422;SDS011;2224;49.814;8.650;2024-02-28T09:44:06;43.60;;;22.77;;
4422;SDS011;2224;49.814;8.650;2024-02-28T09:46:32;43.43;;;24.70;;
4422;SDS011;2224;49.814;8.650;2024-02-28T09:48:59;36.30;;;22.40;;
4422;SDS011;2224;49.814;8.650;2024-02-28T09:51:30;41.03;;;24.17;;
4422;SDS011;2224;49.814;8.650;2024-02-28T09:54:05;40.83;;;24.70;;
4422;SDS011;2224;49.814;8.650;2024-02-28T09:56:31;40.30;;;23.23;;
4422;SDS011;2224;49.814;8.650;2024-02-28T09:58:56;36.30;;;21.63;;
4422;SDS011;2224;49.814;8.650;2024-02-28T10:01:22;39.10;;;23.27;;
4422;SDS011;2224;49.814;8.650;2024-02-28T10:03:47;42.13;;;23.33;;
4422;SDS011;2224;49.814;8.650;2024-02-28T10:06:15;36.27;;;22.27;;
4422;SDS011;2224;49.814;8.650;2024-02-28T10:08:41;37.53;;;22.90;;
4422;SDS011;2224;49.814;8.650;2024-02-28T10:11:06;43.33;;;24.07;;
4422;SDS011;2224;49.814;8.650;2024-02-28T10:13:31;37.90;;;23.73;;
4422;SDS011;2224;49.814;8.650;2024-02-28T10:15:57;41.53;;;23.73;;
4422;SDS011;2224;49.814;8.650;2024-02-28T10:18:22;37.77;;;22.90;;
4422;SDS011;2224;49.814;8.650;2024-02-28T10:20:47;39.23;;;22.47;;
4422;SDS011;2224;49.814;8.650;2024-02-28T10:23:13;36.70;;;23.83;;
4422;SDS011;2224;49.814;8.650;2024-02-28T10:25:44;36.10;;;22.30;;
4422;SDS011;2224;49.814;8.650;2024-02-28T10:28:10;39.33;;;22.67;;
4422;SDS011;2224;49.814;8.650;2024-02-28T10:30:42;34.83;;;21.60;;
4422;SDS011;2224;49.814;8.650;2024-02-28T10:33:11;37.07;;;23.03;;
4422;SDS011;2224;49.814;8.650;2024-02-28T10:35:39;39.40;;;23.60;;
4422;SDS011;2224;49.814;8.650;2024-02-28T10:38:05;32.90;;;20.17;;
4422;SDS011;2224;49.814;8.650;2024-02-28T10:40:30;35.10;;;20.80;;
4422;SDS011;2224;49.814;8.650;2024-02-28T10:42:55;34.43;;;20.47;;
4422;SDS011;2224;49.814;8.650;2024-02-28T10:45:23;31.30;;;21.90;;
4422;SDS011;2224;49.814;8.650;2024-02-28T10:47:50;34.60;;;18.90;;
4422;SDS011;2224;49.814;8.650;2024-02-28T10:50:16;31.80;;;19.20;;
4422;SDS011;2224;49.814;8.650;2024-02-28T10:52:45;36.43;;;20.53;;
4422;SDS011;2224;49.814;8.650;2024-02-28T10:55:20;35.70;;;22.23;;
4422;SDS011;2224;49.814;8.650;2024-02-28T10:57:49;31.03;;;19.23;;
4422;SDS011;2224;49.814;8.650;2024-02-28T11:00:19;29.33;;;19.00;;
4422;SDS011;2224;49.814;8.650;2024-02-28T11:02:45;33.63;;;18.83;;
4422;SDS011;2224;49.814;8.650;2024-02-28T11:05:11;28.23;;;19.20;;
4422;SDS011;2224;49.814;8.650;2024-02-28T11:07:40;30.10;;;18.97;;
4422;SDS011;2224;49.814;8.650;2024-02-28T11:10:06;29.57;;;19.13;;
4422;SDS011;2224;49.814;8.650;2024-02-28T11:12:31;28.80;;;20.10;;
4422;SDS011;2224;49.814;8.650;2024-02-28T11:15:01;28.40;;;17.73;;
4422;SDS011;2224;49.814;8.650;2024-02-28T11:17:28;27.43;;;17.50;;
4422;SDS011;2224;49.814;8.650;2024-02-28T11:19:54;27.33;;;17.83;;
4422;SDS011;2224;49.814;8.650;2024-02-28T11:22:19;27.60;;;17.20;;
4422;SDS011;2224;49.814;8.650;2024-02-28T11:24:46;24.57;;;16.17;;
4422;SDS011;2224;49.814;8.650;2024-02-28T11:27:12;24.97;;;15.57;;
4422;SDS011;2224;49.814;8.650;2024-02-28T11:29:38;28.00;;;18.13;;
4422;SDS011;2224;49.814;8.650;2024-02-28T11:32:04;22.27;;;14.63;;
4422;SDS011;2224;49.814;8.650;2024-02-28T11:34:30;22.33;;;14.43;;
4422;SDS011;2224;49.814;8.650;2024-02-28T11:36:55;24.83;;;14.90;;
4422;SDS011;2224;49.814;8.650;2024-02-28T11:39:22;23.07;;;15.23;;
4422;SDS011;2224;49.814;8.650;2024-02-28T11:41:49;21.20;;;15.07;;
4422;SDS011;2224;49.814;8.650;2024-02-28T11:44:15;23.53;;;15.90;;
4422;SDS011;2224;49.814;8.650;2024-02-28T11:49:14;19.00;;;12.77;;
4422;SDS011;2224;49.814;8.650;2024-02-28T11:51:40;23.47;;;15.73;;
4422;SDS011;2224;49.814;8.650;2024-02-28T11:54:09;18.03;;;13.27;;
4422;SDS011;2224;49.814;8.650;2024-02-28T11:56:38;19.70;;;13.37;;
4422;SDS011;2224;49.814;8.650;2024-02-28T11:59:04;17.93;;;12.53;;
4422;SDS011;2224;49.814;8.650;2024-02-28T12:04:17;17.83;;;13.10;;
4422;SDS011;2224;49.814;8.650;2024-02-28T12:06:42;17.40;;;13.10;;
4422;SDS011;2224;49.814;8.650;2024-02-28T12:09:09;19.83;;;12.37;;
4422;SDS011;2224;49.814;8.650;2024-02-28T12:11:37;17.00;;;12.23;;
4422;SDS011;2224;49.814;8.650;2024-02-28T12:14:03;19.70;;;13.23;;
4422;SDS011;2224;49.814;8.650;2024-02-28T12:16:29;16.30;;;11.67;;
4422;SDS011;2224;49.814;8.650;2024-02-28T12:18:55;17.20;;;12.20;;
4422;SDS011;2224;49.814;8.650;2024-02-28T12:21:20;16.00;;;12.03;;
4422;SDS011;2224;49.814;8.650;2024-02-28T12:23:46;15.90;;;11.30;;
4422;SDS011;2224;49.814;8.650;2024-02-28T12:26:13;16.47;;;11.73;;
4422;SDS011;2224;49.814;8.650;2024-02-28T12:28:38;16.30;;;11.33;;
4422;SDS011;2224;49.814;8.650;2024-02-28T12:31:04;15.17;;;11.40;;
4422;SDS011;2224;49.814;8.650;2024-02-28T12:33:30;14.73;;;11.40;;
4422;SDS011;2224;49.814;8.650;2024-02-28T12:35:57;16.43;;;11.20;;
4422;SDS011;2224;49.814;8.650;2024-02-28T12:38:22;14.60;;;10.73;;
4422;SDS011;2224;49.814;8.650;2024-02-28T12:40:48;19.63;;;13.37;;
4422;SDS011;2224;49.814;8.650;2024-02-28T12:43:13;19.13;;;12.27;;
4422;SDS011;2224;49.814;8.650;2024-02-28T12:45:39;14.73;;;10.53;;
4422;SDS011;2224;49.814;8.650;2024-02-28T12:48:04;14.90;;;10.70;;
4422;SDS011;2224;49.814;8.650;2024-02-28T12:50:31;20.77;;;11.83;;
4422;SDS011;2224;49.814;8.650;2024-02-28T12:52:58;18.27;;;11.50;;
4422;SDS011;2224;49.814;8.650;2024-02-28T12:55:25;13.77;;;10.40;;
4422;SDS011;2224;49.814;8.650;2024-02-28T12:57:50;13.47;;;9.87;;
4422;SDS011;2224;49.814;8.650;2024-02-28T13:00:16;13.03;;;9.77;;
4422;SDS011;2224;49.814;8.650;2024-02-28T13:02:41;13.30;;;10.03;;
4422;SDS011;2224;49.814;8.650;2024-02-28T13:05:07;12.10;;;10.30;;
4422;SDS011;2224;49.814;8.650;2024-02-28T13:07:32;12.23;;;10.13;;
4422;SDS011;2224;49.814;8.650;2024-02-28T13:09:57;11.00;;;8.70;;
4422;SDS011;2224;49.814;8.650;2024-02-28T13:12:23;11.27;;;8.33;;
4422;SDS011;2224;49.814;8.650;2024-02-28T13:14:48;8.80;;;7.40;;
4422;SDS011;2224;49.814;8.650;2024-02-28T13:17:13;11.13;;;8.53;;
4422;SDS011;2224;49.814;8.650;2024-02-28T13:19:40;9.47;;;7.40;;
4422;SDS011;2224;49.814;8.650;2024-02-28T13:22:05;11.50;;;7.23;;
4422;SDS011;2224;49.814;8.650;2024-02-28T13:24:31;7.37;;;6.20;;
4422;SDS011;2224;49.814;8.650;2024-02-28T13:26:57;8.30;;;6.90;;
4422;SDS011;2224;49.814;8.650;2024-02-28T13:29:22;6.87;;;5.30;;
4422;SDS011;2224;49.814;8.650;2024-02-28T13:31:48;6.10;;;5.47;;
4422;SDS011;2224;49.814;8.650;2024-02-28T13:34:13;8.00;;;5.23;;
4422;SDS011;2224;49.814;8.650;2024-02-28T13:36:38;8.77;;;6.50;;
4422;SDS011;2224;49.814;8.650;2024-02-28T13:39:07;6.27;;;5.07;;
4422;SDS011;2224;49.814;8.650;2024-02-28T13:41:33;6.43;;;4.80;;
4422;SDS011;2224;49.814;8.650;2024-02-28T13:43:59;6.23;;;5.63;;
4422;SDS011;2224;49.814;8.650;2024-02-28T13:46:24;5.40;;;4.43;;
4422;SDS011;2224;49.814;8.650;2024-02-28T13:48:49;6.40;;;5.17;;
4422;SDS011;2224;49.814;8.650;2024-02-28T13:51:15;6.83;;;5.10;;
4422;SDS011;2224;49.814;8.650;2024-02-28T13:53:40;4.93;;;4.40;;
4422;SDS011;2224;49.814;8.650;2024-02-28T13:56:06;5.87;;;4.40;;
4422;SDS011;2224;49.814;8.650;2024-02-28T13:58:32;5.70;;;4.30;;
4422;SDS011;2224;49.814;8.650;2024-02-28T14:00:57;6.07;;;5.03;;
4422;SDS011;2224;49.814;8.650;2024-02-28T14:03:22;6.07;;;4.60;;
4422;SDS011;2224;49.814;8.650;2024-02-28T14:05:50;5.53;;;4.17;;
4422;SDS011;2224;49.814;8.650;2024-02-28T14:08:15;4.93;;;4.37;;
4422;SDS011;2224;49.814;8.650;2024-02-28T14:10:42;5.03;;;3.67;;
4422;SDS011;2224;49.814;8.650;2024-02-28T14:13:07;8.60;;;4.47;;
4422;SDS011;2224;49.814;8.650;2024-02-28T14:15:32;5.23;;;4.50;;
4422;SDS011;2224;49.814;8.650;2024-02-28T14:17:57;6.53;;;4.33;;
4422;SDS011;2224;49.814;8.650;2024-02-28T14:20:23;5.13;;;4.00;;
4422;SDS011;2224;49.814;8.650;2024-02-28T14:22:48;5.37;;;4.00;;
4422;SDS011;2224;49.814;8.650;2024-02-28T14:25:15;4.70;;;4.00;;
4422;SDS011;2224;49.814;8.650;2024-02-28T14:27:44;5.53;;;3.70;;
4422;SDS011;2224;49.814;8.650;2024-02-28T14:30:10;6.30;;;4.50;;
4422;SDS011;2224;49.814;8.650;2024-02-28T14:32:36;5.20;;;3.77;;
4422;SDS011;2224;49.814;8.650;2024-02-28T14:35:02;4.37;;;3.70;;
4422;SDS011;2224;49.814;8.650;2024-02-28T14:37:29;4.63;;;3.27;;
4422;SDS011;2224;49.814;8.650;2024-02-28T14:39:55;4.40;;;3.67;;
4422;SDS011;2224;49.814;8.650;2024-02-28T14:42:20;5.60;;;4.07;;
4422;SDS011;2224;49.814;8.650;2024-02-28T14:44:45;4.30;;;3.03;;
4422;SDS011;2224;49.814;8.650;2024-02-28T14:47:11;4.40;;;3.53;;